sensor_id;sensor_type;location;lat;lon;timestamp;P1;durP1;ratioP1;P2;durP2;ratioP2
10653;SDS011;5375;51.250;6.776;2023-05-10T00:00:52;1.50;;;1.30;;
10653;SDS011;5375;51.250;6.776;2023-05-10T00:03:18;1.73;;;1.40;;
10653;SDS011;5375;51.250;6.776;2023-05-10T00:05:43;1.60;;;1.15;;
10653;SDS011;5375;51.250;6.776;2023-05-10T00:08:09;2.05;;;1.38;;
10653;SDS011;5375;51.250;6.776;2023-05-10T00:10:35;1.17;;;1.05;;
10653;SDS011;5375;51.250;6.776;2023-05-10T00:13:02;1.42;;;1.20;;
10653;SDS011;5375;51.250;6.776;2023-05-10T00:15:28;1.10;;;1.00;;
10653;SDS011;5375;51.250;6.776;2023-05-10T00:17:55;1.75;;;1.30;;
10653;SDS011;5375;51.250;6.776;2023-05-10T00:20:21;1.60;;;1.15;;
10653;SDS011;5375;51.250;6.776;2023-05-10T00:22:47;1.73;;;1.08;;
10653;SDS011;5375;51.250;6.776;2023-05-10T00:25:12;1.27;;;1.17;;
10653;SDS011;5375;51.250;6.776;2023-05-10T00:27:38;1.30;;;1.20;;
10653;SDS011;5375;51.250;6.776;2023-05-10T00:30:04;1.95;;;1.30;;
10653;SDS011;5375;51.250;6.776;2023-05-10T00:32:30;1.73;;;1.40;;
10653;SDS011;5375;51.250;6.776;2023-05-10T00:34:56;1.30;;;1.20;;
10653;SDS011;5375;51.250;6.776;2023-05-10T00:37:21;1.23;;;0.95;;
10653;SDS011;5375;51.250;6.776;2023-05-10T00:39:47;1.20;;;1.10;;
10653;SDS011;5375;51.250;6.776;2023-05-10T00:42:13;2.28;;;1.10;;
10653;SDS011;5375;51.250;6.776;2023-05-10T00:44:38;1.27;;;1.17;;
10653;SDS011;5375;51.250;6.776;2023-05-10T00:47:04;1.60;;;1.00;;
10653;SDS011;5375;51.250;6.776;2023-05-10T00:49:30;1.30;;;1.10;;
10653;SDS011;5375;51.250;6.776;2023-05-10T00:51:57;2.00;;;0.90;;
10653;SDS011;5375;51.250;6.776;2023-05-10T00:54:23;1.88;;;1.02;;
10653;SDS011;5375;51.250;6.776;2023-05-10T00:56:49;1.15;;;1.00;;
10653;SDS011;5375;51.250;6.776;2023-05-10T00:59:15;2.88;;;1.20;;
10653;SDS011;5375;51.250;6.776;2023-05-10T01:01:42;1.05;;;0.98;;
10653;SDS011;5375;51.250;6.776;2023-05-10T01:04:11;1.20;;;1.10;;
10653;SDS011;5375;51.250;6.776;2023-05-10T01:06:38;1.30;;;1.00;;
10653;SDS011;5375;51.250;6.776;2023-05-10T01:09:07;1.33;;;1.00;;
10653;SDS011;5375;51.250;6.776;2023-05-10T01:11:36;1.48;;;1.20;;
10653;SDS011;5375;51.250;6.776;2023-05-10T01:14:04;2.15;;;1.10;;
10653;SDS011;5375;51.250;6.776;2023-05-10T01:16:38;1.75;;;1.00;;
10653;SDS011;5375;51.250;6.776;2023-05-10T01:19:10;1.20;;;1.00;;
10653;SDS011;5375;51.250;6.776;2023-05-10T01:21:53;1.33;;;1.02;;
10653;SDS011;5375;51.250;6.776;2023-05-10T01:32:29;1.38;;;1.15;;
10653;SDS011;5375;51.250;6.776;2023-05-10T01:35:19;1.08;;;0.95;;
10653;SDS011;5375;51.250;6.776;2023-05-10T01:40:39;1.40;;;1.20;;
10653;SDS011;5375;51.250;6.776;2023-05-10T01:43:08;1.40;;;1.10;;
10653;SDS011;5375;51.250;6.776;2023-05-10T01:48:43;1.35;;;1.20;;
10653;SDS011;5375;51.250;6.776;2023-05-10T01:51:17;1.65;;;1.10;;
10653;SDS011;5375;51.250;6.776;2023-05-10T01:53:47;1.55;;;1.10;;
10653;SDS011;5375;51.250;6.776;2023-05-10T01:56:15;17.02;;;1.30;;
10653;SDS011;5375;51.250;6.776;2023-05-10T01:58:43;2.45;;;1.10;;
10653;SDS011;5375;51.250;6.776;2023-05-10T02:01:12;2.35;;;1.17;;
10653;SDS011;5375;51.250;6.776;2023-05-10T02:03:39;4.32;;;0.90;;
10653;SDS011;5375;51.250;6.776;2023-05-10T02:06:07;3.13;;;1.13;;
10653;SDS011;5375;51.250;6.776;2023-05-10T02:08:37;1.45;;;0.95;;
10653;SDS011;5375;51.250;6.776;2023-05-10T02:11:05;2.50;;;1.23;;
10653;SDS011;5375;51.250;6.776;2023-05-10T02:13:31;1.08;;;0.98;;
10653;SDS011;5375;51.250;6.776;2023-05-10T02:16:00;2.55;;;1.10;;
10653;SDS011;5375;51.250;6.776;2023-05-10T02:18:28;1.30;;;1.20;;
10653;SDS011;5375;51.250;6.776;2023-05-10T02:20:55;1.15;;;1.00;;
10653;SDS011;5375;51.250;6.776;2023-05-10T02:23:22;2.38;;;1.08;;
10653;SDS011;5375;51.250;6.776;2023-05-10T02:25:49;1.35;;;0.85;;
10653;SDS011;5375;51.250;6.776;2023-05-10T02:28:17;1.30;;;1.17;;
10653;SDS011;5375;51.250;6.776;2023-05-10T02:30:44;1.45;;;1.25;;
10653;SDS011;5375;51.250;6.776;2023-05-10T02:33:10;1.60;;;1.10;;
10653;SDS011;5375;51.250;6.776;2023-05-10T02:35:36;2.25;;;1.00;;
10653;SDS011;5375;51.250;6.776;2023-05-10T02:38:03;1.20;;;1.00;;
10653;SDS011;5375;51.250;6.776;2023-05-10T02:40:29;1.27;;;1.00;;
10653;SDS011;5375;51.250;6.776;2023-05-10T02:42:56;1.23;;;0.90;;
10653;SDS011;5375;51.250;6.776;2023-05-10T02:45:24;1.10;;;1.00;;
10653;SDS011;5375;51.250;6.776;2023-05-10T02:47:54;1.92;;;1.13;;
10653;SDS011;5375;51.250;6.776;2023-05-10T02:50:20;1.70;;;1.13;;
10653;SDS011;5375;51.250;6.776;2023-05-10T02:52:52;1.30;;;1.10;;
10653;SDS011;5375;51.250;6.776;2023-05-10T02:55:25;1.92;;;1.08;;
10653;SDS011;5375;51.250;6.776;2023-05-10T02:57:58;1.63;;;1.08;;
10653;SDS011;5375;51.250;6.776;2023-05-10T03:00:25;0.85;;;0.85;;
10653;SDS011;5375;51.250;6.776;2023-05-10T03:02:51;1.80;;;1.30;;
10653;SDS011;5375;51.250;6.776;2023-05-10T03:05:17;1.00;;;0.90;;
10653;SDS011;5375;51.250;6.776;2023-05-10T03:07:43;1.30;;;1.02;;
10653;SDS011;5375;51.250;6.776;2023-05-10T03:10:10;1.73;;;1.05;;
10653;SDS011;5375;51.250;6.776;2023-05-10T03:18:20;2.47;;;1.40;;
10653;SDS011;5375;51.250;6.776;2023-05-10T03:20:48;3.83;;;1.20;;
10653;SDS011;5375;51.250;6.776;2023-05-10T03:23:22;2.47;;;1.00;;
10653;SDS011;5375;51.250;6.776;2023-05-10T03:25:53;1.60;;;1.10;;
10653;SDS011;5375;51.250;6.776;2023-05-10T03:28:19;3.13;;;1.20;;
10653;SDS011;5375;51.250;6.776;2023-05-10T03:30:46;1.95;;;1.35;;
10653;SDS011;5375;51.250;6.776;2023-05-10T03:33:12;1.00;;;0.90;;
10653;SDS011;5375;51.250;6.776;2023-05-10T03:35:38;2.67;;;1.25;;
10653;SDS011;5375;51.250;6.776;2023-05-10T03:38:04;1.40;;;1.23;;
10653;SDS011;5375;51.250;6.776;2023-05-10T03:40:30;2.05;;;1.30;;
10653;SDS011;5375;51.250;6.776;2023-05-10T03:42:57;1.38;;;1.17;;
10653;SDS011;5375;51.250;6.776;2023-05-10T03:45:24;1.63;;;1.00;;
10653;SDS011;5375;51.250;6.776;2023-05-10T03:47:49;2.63;;;1.15;;
10653;SDS011;5375;51.250;6.776;2023-05-10T03:50:15;1.35;;;1.00;;
10653;SDS011;5375;51.250;6.776;2023-05-10T03:52:41;1.52;;;1.10;;
10653;SDS011;5375;51.250;6.776;2023-05-10T03:55:06;1.10;;;1.00;;
10653;SDS011;5375;51.250;6.776;2023-05-10T03:57:33;1.20;;;1.10;;
10653;SDS011;5375;51.250;6.776;2023-05-10T03:59:59;1.13;;;1.02;;
10653;SDS011;5375;51.250;6.776;2023-05-10T04:02:28;1.73;;;1.00;;
10653;SDS011;5375;51.250;6.776;2023-05-10T04:04:55;1.27;;;1.00;;
10653;SDS011;5375;51.250;6.776;2023-05-10T04:07:21;2.20;;;1.17;;
10653;SDS011;5375;51.250;6.776;2023-05-10T04:09:48;2.88;;;1.05;;
10653;SDS011;5375;51.250;6.776;2023-05-10T04:12:15;2.05;;;1.08;;
10653;SDS011;5375;51.250;6.776;2023-05-10T04:14:40;2.08;;;1.20;;
10653;SDS011;5375;51.250;6.776;2023-05-10T04:17:06;5.43;;;1.10;;
10653;SDS011;5375;51.250;6.776;2023-05-10T04:19:32;1.00;;;0.90;;
10653;SDS011;5375;51.250;6.776;2023-05-10T04:21:58;1.55;;;1.10;;
10653;SDS011;5375;51.250;6.776;2023-05-10T04:24:25;1.30;;;1.08;;
10653;SDS011;5375;51.250;6.776;2023-05-10T04:26:51;1.50;;;1.10;;
10653;SDS011;5375;51.250;6.776;2023-05-10T04:29:18;2.92;;;1.00;;
10653;SDS011;5375;51.250;6.776;2023-05-10T04:31:44;1.83;;;1.20;;
10653;SDS011;5375;51.250;6.776;2023-05-10T04:34:10;1.98;;;1.17;;
10653;SDS011;5375;51.250;6.776;2023-05-10T04:36:35;2.25;;;1.13;;
10653;SDS011;5375;51.250;6.776;2023-05-10T04:39:02;2.17;;;1.30;;
10653;SDS011;5375;51.250;6.776;2023-05-10T04:41:28;1.40;;;1.20;;
10653;SDS011;5375;51.250;6.776;2023-05-10T04:43:54;4.55;;;1.40;;
10653;SDS011;5375;51.250;6.776;2023-05-10T04:46:20;1.20;;;1.10;;
10653;SDS011;5375;51.250;6.776;2023-05-10T04:48:46;2.53;;;1.30;;
10653;SDS011;5375;51.250;6.776;2023-05-10T04:51:11;1.42;;;1.15;;
10653;SDS011;5375;51.250;6.776;2023-05-10T04:53:37;1.27;;;1.15;;
10653;SDS011;5375;51.250;6.776;2023-05-10T04:56:03;2.08;;;1.27;;
10653;SDS011;5375;51.250;6.776;2023-05-10T04:58:29;2.08;;;1.33;;
10653;SDS011;5375;51.250;6.776;2023-05-10T05:00:54;1.77;;;1.13;;
10653;SDS011;5375;51.250;6.776;2023-05-10T05:03:20;1.52;;;1.10;;
10653;SDS011;5375;51.250;6.776;2023-05-10T05:05:45;2.45;;;1.58;;
10653;SDS011;5375;51.250;6.776;2023-05-10T05:08:11;1.52;;;1.27;;
10653;SDS011;5375;51.250;6.776;2023-05-10T05:10:37;2.50;;;1.30;;
10653;SDS011;5375;51.250;6.776;2023-05-10T05:13:03;2.17;;;1.33;;
10653;SDS011;5375;51.250;6.776;2023-05-10T05:15:28;1.40;;;1.25;;
10653;SDS011;5375;51.250;6.776;2023-05-10T05:17:55;1.80;;;1.30;;
10653;SDS011;5375;51.250;6.776;2023-05-10T05:20:21;1.40;;;1.30;;
10653;SDS011;5375;51.250;6.776;2023-05-10T05:22:47;1.80;;;1.52;;
10653;SDS011;5375;51.250;6.776;2023-05-10T05:25:12;3.55;;;1.45;;
10653;SDS011;5375;51.250;6.776;2023-05-10T05:27:38;1.85;;;1.33;;
10653;SDS011;5375;51.250;6.776;2023-05-10T05:30:04;2.85;;;1.20;;
10653;SDS011;5375;51.250;6.776;2023-05-10T05:32:30;3.40;;;1.50;;
10653;SDS011;5375;51.250;6.776;2023-05-10T05:34:56;1.50;;;1.40;;
10653;SDS011;5375;51.250;6.776;2023-05-10T05:37:22;1.60;;;1.50;;
10653;SDS011;5375;51.250;6.776;2023-05-10T05:39:47;2.13;;;1.50;;
10653;SDS011;5375;51.250;6.776;2023-05-10T05:42:13;2.15;;;1.55;;
10653;SDS011;5375;51.250;6.776;2023-05-10T05:44:39;2.05;;;1.55;;
10653;SDS011;5375;51.250;6.776;2023-05-10T05:47:05;1.33;;;1.20;;
10653;SDS011;5375;51.250;6.776;2023-05-10T05:49:31;2.05;;;1.40;;
10653;SDS011;5375;51.250;6.776;2023-05-10T05:52:01;6.55;;;1.45;;
10653;SDS011;5375;51.250;6.776;2023-05-10T05:54:28;1.73;;;1.50;;
10653;SDS011;5375;51.250;6.776;2023-05-10T05:56:57;1.55;;;1.25;;
10653;SDS011;5375;51.250;6.776;2023-05-10T05:59:24;3.40;;;1.80;;
10653;SDS011;5375;51.250;6.776;2023-05-10T06:01:50;2.57;;;1.80;;
10653;SDS011;5375;51.250;6.776;2023-05-10T06:04:16;3.17;;;1.80;;
10653;SDS011;5375;51.250;6.776;2023-05-10T06:06:42;2.45;;;1.55;;
10653;SDS011;5375;51.250;6.776;2023-05-10T06:09:08;1.90;;;1.30;;
10653;SDS011;5375;51.250;6.776;2023-05-10T06:11:34;1.95;;;1.60;;
10653;SDS011;5375;51.250;6.776;2023-05-10T06:14:00;1.90;;;1.70;;
10653;SDS011;5375;51.250;6.776;2023-05-10T06:16:26;2.40;;;1.60;;
10653;SDS011;5375;51.250;6.776;2023-05-10T06:18:52;2.30;;;1.73;;
10653;SDS011;5375;51.250;6.776;2023-05-10T06:21:18;2.17;;;1.58;;
10653;SDS011;5375;51.250;6.776;2023-05-10T06:23:44;2.45;;;1.77;;
10653;SDS011;5375;51.250;6.776;2023-05-10T06:26:10;2.92;;;1.85;;
10653;SDS011;5375;51.250;6.776;2023-05-10T06:28:35;2.38;;;1.63;;
10653;SDS011;5375;51.250;6.776;2023-05-10T06:31:03;1.70;;;1.60;;
10653;SDS011;5375;51.250;6.776;2023-05-10T06:33:29;2.58;;;1.67;;
10653;SDS011;5375;51.250;6.776;2023-05-10T06:35:55;2.03;;;1.83;;
10653;SDS011;5375;51.250;6.776;2023-05-10T06:38:20;2.60;;;1.58;;
10653;SDS011;5375;51.250;6.776;2023-05-10T06:40:46;2.87;;;1.70;;
10653;SDS011;5375;51.250;6.776;2023-05-10T06:43:12;2.10;;;1.90;;
10653;SDS011;5375;51.250;6.776;2023-05-10T06:45:37;2.90;;;1.88;;
10653;SDS011;5375;51.250;6.776;2023-05-10T06:48:03;2.30;;;1.70;;
10653;SDS011;5375;51.250;6.776;2023-05-10T06:50:29;2.03;;;1.52;;
10653;SDS011;5375;51.250;6.776;2023-05-10T06:52:54;3.05;;;1.50;;
10653;SDS011;5375;51.250;6.776;2023-05-10T06:55:20;2.47;;;1.85;;
10653;SDS011;5375;51.250;6.776;2023-05-10T06:57:46;2.53;;;1.85;;
10653;SDS011;5375;51.250;6.776;2023-05-10T07:00:12;1.88;;;1.50;;
10653;SDS011;5375;51.250;6.776;2023-05-10T07:02:39;3.28;;;1.92;;
10653;SDS011;5375;51.250;6.776;2023-05-10T07:05:04;2.38;;;1.83;;
10653;SDS011;5375;51.250;6.776;2023-05-10T07:07:30;2.70;;;1.85;;
10653;SDS011;5375;51.250;6.776;2023-05-10T07:09:56;2.88;;;1.90;;
10653;SDS011;5375;51.250;6.776;2023-05-10T07:12:24;1.92;;;1.73;;
10653;SDS011;5375;51.250;6.776;2023-05-10T07:14:49;2.53;;;2.05;;
10653;SDS011;5375;51.250;6.776;2023-05-10T07:17:15;1.85;;;1.60;;
10653;SDS011;5375;51.250;6.776;2023-05-10T07:19:41;3.05;;;1.95;;
10653;SDS011;5375;51.250;6.776;2023-05-10T07:22:06;2.38;;;2.00;;
10653;SDS011;5375;51.250;6.776;2023-05-10T07:24:33;3.47;;;1.90;;
10653;SDS011;5375;51.250;6.776;2023-05-10T07:26:59;1.95;;;1.70;;
10653;SDS011;5375;51.250;6.776;2023-05-10T07:29:24;4.70;;;2.13;;
10653;SDS011;5375;51.250;6.776;2023-05-10T07:31:50;2.30;;;2.00;;
10653;SDS011;5375;51.250;6.776;2023-05-10T07:34:16;2.78;;;2.00;;
10653;SDS011;5375;51.250;6.776;2023-05-10T07:36:41;3.30;;;2.22;;
10653;SDS011;5375;51.250;6.776;2023-05-10T07:39:07;2.45;;;2.15;;
10653;SDS011;5375;51.250;6.776;2023-05-10T07:41:33;3.13;;;2.10;;
10653;SDS011;5375;51.250;6.776;2023-05-10T07:43:58;2.63;;;1.98;;
10653;SDS011;5375;51.250;6.776;2023-05-10T07:46:24;2.83;;;1.90;;
10653;SDS011;5375;51.250;6.776;2023-05-10T07:48:50;2.20;;;2.00;;
10653;SDS011;5375;51.250;6.776;2023-05-10T07:51:16;2.22;;;2.03;;
10653;SDS011;5375;51.250;6.776;2023-05-10T07:53:42;4.93;;;2.37;;
10653;SDS011;5375;51.250;6.776;2023-05-10T07:56:21;2.55;;;2.08;;
10653;SDS011;5375;51.250;6.776;2023-05-10T07:58:59;2.88;;;2.15;;
10653;SDS011;5375;51.250;6.776;2023-05-10T08:01:32;2.58;;;2.20;;
10653;SDS011;5375;51.250;6.776;2023-05-10T08:03:59;4.47;;;2.30;;
10653;SDS011;5375;51.250;6.776;2023-05-10T08:06:26;2.70;;;2.35;;
10653;SDS011;5375;51.250;6.776;2023-05-10T08:09:02;2.80;;;2.25;;
10653;SDS011;5375;51.250;6.776;2023-05-10T08:11:32;2.33;;;2.13;;
10653;SDS011;5375;51.250;6.776;2023-05-10T08:13:58;2.95;;;2.33;;
10653;SDS011;5375;51.250;6.776;2023-05-10T08:16:23;2.92;;;2.45;;
10653;SDS011;5375;51.250;6.776;2023-05-10T08:18:49;2.95;;;2.20;;
10653;SDS011;5375;51.250;6.776;2023-05-10T08:21:15;3.13;;;2.50;;
10653;SDS011;5375;51.250;6.776;2023-05-10T08:23:41;2.42;;;2.20;;
10653;SDS011;5375;51.250;6.776;2023-05-10T08:26:08;4.00;;;2.35;;
10653;SDS011;5375;51.250;6.776;2023-05-10T08:28:34;3.38;;;2.08;;
10653;SDS011;5375;51.250;6.776;2023-05-10T08:30:59;2.72;;;2.28;;
10653;SDS011;5375;51.250;6.776;2023-05-10T08:33:25;3.13;;;2.60;;
10653;SDS011;5375;51.250;6.776;2023-05-10T08:35:50;2.80;;;2.40;;
10653;SDS011;5375;51.250;6.776;2023-05-10T08:38:17;2.42;;;2.10;;
10653;SDS011;5375;51.250;6.776;2023-05-10T08:40:43;2.50;;;2.30;;
10653;SDS011;5375;51.250;6.776;2023-05-10T08:43:10;4.25;;;2.35;;
10653;SDS011;5375;51.250;6.776;2023-05-10T08:45:37;3.03;;;2.47;;
10653;SDS011;5375;51.250;6.776;2023-05-10T08:48:08;2.60;;;2.20;;
10653;SDS011;5375;51.250;6.776;2023-05-10T08:50:35;3.15;;;2.28;;
10653;SDS011;5375;51.250;6.776;2023-05-10T08:53:03;2.85;;;2.47;;
10653;SDS011;5375;51.250;6.776;2023-05-10T08:55:31;2.75;;;2.42;;
10653;SDS011;5375;51.250;6.776;2023-05-10T08:57:58;2.85;;;2.17;;
10653;SDS011;5375;51.250;6.776;2023-05-10T09:00:27;2.60;;;2.40;;
10653;SDS011;5375;51.250;6.776;2023-05-10T09:02:53;3.33;;;2.15;;
10653;SDS011;5375;51.250;6.776;2023-05-10T09:05:19;3.20;;;2.25;;
10653;SDS011;5375;51.250;6.776;2023-05-10T09:07:45;2.60;;;2.22;;
10653;SDS011;5375;51.250;6.776;2023-05-10T09:10:11;3.63;;;2.15;;
10653;SDS011;5375;51.250;6.776;2023-05-10T09:12:38;2.63;;;2.42;;
10653;SDS011;5375;51.250;6.776;2023-05-10T09:15:04;2.85;;;2.20;;
10653;SDS011;5375;51.250;6.776;2023-05-10T09:17:31;4.03;;;2.30;;
10653;SDS011;5375;51.250;6.776;2023-05-10T09:20:07;3.33;;;2.42;;
10653;SDS011;5375;51.250;6.776;2023-05-10T09:22:33;3.60;;;2.28;;
10653;SDS011;5375;51.250;6.776;2023-05-10T09:27:36;2.85;;;2.03;;
10653;SDS011;5375;51.250;6.776;2023-05-10T09:30:03;2.78;;;2.30;;
10653;SDS011;5375;51.250;6.776;2023-05-10T09:32:40;3.30;;;2.45;;
10653;SDS011;5375;51.250;6.776;2023-05-10T09:35:10;2.75;;;2.10;;
10653;SDS011;5375;51.250;6.776;2023-05-10T09:37:41;3.10;;;2.30;;
10653;SDS011;5375;51.250;6.776;2023-05-10T09:40:08;5.05;;;2.20;;
10653;SDS011;5375;51.250;6.776;2023-05-10T09:42:37;3.78;;;2.55;;
10653;SDS011;5375;51.250;6.776;2023-05-10T09:45:03;2.70;;;2.05;;
10653;SDS011;5375;51.250;6.776;2023-05-10T09:47:31;3.33;;;2.47;;
10653;SDS011;5375;51.250;6.776;2023-05-10T09:50:01;2.90;;;2.30;;
10653;SDS011;5375;51.250;6.776;2023-05-10T09:52:30;3.28;;;2.28;;
10653;SDS011;5375;51.250;6.776;2023-05-10T09:55:10;2.55;;;2.35;;
10653;SDS011;5375;51.250;6.776;2023-05-10T09:57:36;2.40;;;2.20;;
10653;SDS011;5375;51.250;6.776;2023-05-10T10:00:01;2.33;;;2.13;;
10653;SDS011;5375;51.250;6.776;2023-05-10T10:02:29;2.58;;;2.25;;
10653;SDS011;5375;51.250;6.776;2023-05-10T10:04:56;3.67;;;2.70;;
10653;SDS011;5375;51.250;6.776;2023-05-10T10:07:23;3.10;;;2.33;;
10653;SDS011;5375;51.250;6.776;2023-05-10T10:09:52;3.53;;;2.50;;
10653;SDS011;5375;51.250;6.776;2023-05-10T10:12:18;2.50;;;2.25;;
10653;SDS011;5375;51.250;6.776;2023-05-10T10:14:45;2.72;;;2.00;;
10653;SDS011;5375;51.250;6.776;2023-05-10T10:17:12;2.63;;;2.25;;
10653;SDS011;5375;51.250;6.776;2023-05-10T10:19:38;2.75;;;2.30;;
10653;SDS011;5375;51.250;6.776;2023-05-10T10:22:04;3.28;;;2.70;;
10653;SDS011;5375;51.250;6.776;2023-05-10T10:24:30;3.03;;;2.50;;
10653;SDS011;5375;51.250;6.776;2023-05-10T10:26:57;3.55;;;2.20;;
10653;SDS011;5375;51.250;6.776;2023-05-10T10:29:35;2.80;;;2.30;;
10653;SDS011;5375;51.250;6.776;2023-05-10T10:32:30;3.63;;;2.70;;
10653;SDS011;5375;51.250;6.776;2023-05-10T10:35:20;2.47;;;2.20;;
10653;SDS011;5375;51.250;6.776;2023-05-10T10:37:47;2.50;;;2.00;;
10653;SDS011;5375;51.250;6.776;2023-05-10T10:40:28;2.60;;;2.10;;
10653;SDS011;5375;51.250;6.776;2023-05-10T10:42:54;2.97;;;2.50;;
10653;SDS011;5375;51.250;6.776;2023-05-10T10:45:21;2.42;;;2.17;;
10653;SDS011;5375;51.250;6.776;2023-05-10T10:47:47;3.10;;;2.30;;
10653;SDS011;5375;51.250;6.776;2023-05-10T10:50:13;3.85;;;2.10;;
10653;SDS011;5375;51.250;6.776;2023-05-10T10:52:41;3.00;;;2.50;;
10653;SDS011;5375;51.250;6.776;2023-05-10T11:08:12;2.85;;;2.33;;
10653;SDS011;5375;51.250;6.776;2023-05-10T11:13:31;2.78;;;2.45;;
10653;SDS011;5375;51.250;6.776;2023-05-10T11:18:53;2.50;;;2.30;;
10653;SDS011;5375;51.250;6.776;2023-05-10T11:21:21;3.20;;;2.55;;
10653;SDS011;5375;51.250;6.776;2023-05-10T11:26:13;2.83;;;2.35;;
10653;SDS011;5375;51.250;6.776;2023-05-10T11:28:46;2.60;;;2.33;;
10653;SDS011;5375;51.250;6.776;2023-05-10T11:31:18;2.45;;;2.10;;
10653;SDS011;5375;51.250;6.776;2023-05-10T11:36:18;2.88;;;2.28;;
10653;SDS011;5375;51.250;6.776;2023-05-10T11:38:49;2.75;;;2.42;;
10653;SDS011;5375;51.250;6.776;2023-05-10T11:41:15;2.92;;;2.47;;
10653;SDS011;5375;51.250;6.776;2023-05-10T11:43:42;3.00;;;2.28;;
10653;SDS011;5375;51.250;6.776;2023-05-10T11:46:11;2.28;;;2.08;;
10653;SDS011;5375;51.250;6.776;2023-05-10T11:48:41;3.45;;;2.53;;
10653;SDS011;5375;51.250;6.776;2023-05-10T11:51:07;2.50;;;2.15;;
10653;SDS011;5375;51.250;6.776;2023-05-10T11:53:34;2.75;;;2.20;;
10653;SDS011;5375;51.250;6.776;2023-05-10T11:58:33;2.60;;;2.10;;
10653;SDS011;5375;51.250;6.776;2023-05-10T12:00:59;3.22;;;2.22;;
10653;SDS011;5375;51.250;6.776;2023-05-10T12:03:26;2.65;;;2.20;;
10653;SDS011;5375;51.250;6.776;2023-05-10T12:05:53;2.78;;;2.17;;
10653;SDS011;5375;51.250;6.776;2023-05-10T12:08:20;2.25;;;2.03;;
10653;SDS011;5375;51.250;6.776;2023-05-10T12:10:47;2.78;;;2.10;;
10653;SDS011;5375;51.250;6.776;2023-05-10T12:13:13;2.70;;;2.30;;
10653;SDS011;5375;51.250;6.776;2023-05-10T12:15:40;3.30;;;2.20;;
10653;SDS011;5375;51.250;6.776;2023-05-10T12:18:08;2.88;;;2.20;;
10653;SDS011;5375;51.250;6.776;2023-05-10T12:20:36;3.08;;;2.40;;
10653;SDS011;5375;51.250;6.776;2023-05-10T12:23:02;2.78;;;2.35;;
10653;SDS011;5375;51.250;6.776;2023-05-10T12:25:36;3.85;;;2.33;;
10653;SDS011;5375;51.250;6.776;2023-05-10T12:28:03;3.05;;;2.55;;
10653;SDS011;5375;51.250;6.776;2023-05-10T12:30:31;3.33;;;2.00;;
10653;SDS011;5375;51.250;6.776;2023-05-10T12:33:02;2.58;;;2.38;;
10653;SDS011;5375;51.250;6.776;2023-05-10T12:35:45;2.50;;;2.25;;
10653;SDS011;5375;51.250;6.776;2023-05-10T12:41:03;2.60;;;2.30;;
10653;SDS011;5375;51.250;6.776;2023-05-10T12:43:33;2.50;;;2.30;;
10653;SDS011;5375;51.250;6.776;2023-05-10T12:46:03;8.63;;;2.30;;
10653;SDS011;5375;51.250;6.776;2023-05-10T12:48:40;2.58;;;2.10;;
10653;SDS011;5375;51.250;6.776;2023-05-10T12:51:07;2.22;;;1.98;;
10653;SDS011;5375;51.250;6.776;2023-05-10T12:53:34;3.75;;;2.30;;
10653;SDS011;5375;51.250;6.776;2023-05-10T12:56:01;3.03;;;2.40;;
10653;SDS011;5375;51.250;6.776;2023-05-10T12:58:26;3.45;;;2.40;;
10653;SDS011;5375;51.250;6.776;2023-05-10T13:00:52;2.70;;;2.03;;
10653;SDS011;5375;51.250;6.776;2023-05-10T13:03:18;8.05;;;2.10;;
10653;SDS011;5375;51.250;6.776;2023-05-10T13:05:43;3.08;;;2.05;;
10653;SDS011;5375;51.250;6.776;2023-05-10T13:08:09;2.13;;;1.92;;
10653;SDS011;5375;51.250;6.776;2023-05-10T13:10:35;3.28;;;2.40;;
10653;SDS011;5375;51.250;6.776;2023-05-10T13:13:00;2.45;;;2.00;;
10653;SDS011;5375;51.250;6.776;2023-05-10T13:15:26;3.20;;;2.20;;
10653;SDS011;5375;51.250;6.776;2023-05-10T13:17:52;2.40;;;2.20;;
10653;SDS011;5375;51.250;6.776;2023-05-10T13:20:18;3.53;;;2.08;;
10653;SDS011;5375;51.250;6.776;2023-05-10T13:22:44;3.05;;;2.28;;
10653;SDS011;5375;51.250;6.776;2023-05-10T13:25:10;2.75;;;2.33;;
10653;SDS011;5375;51.250;6.776;2023-05-10T13:27:36;3.85;;;2.20;;
10653;SDS011;5375;51.250;6.776;2023-05-10T13:30:03;2.50;;;1.77;;
10653;SDS011;5375;51.250;6.776;2023-05-10T13:32:29;2.15;;;1.90;;
10653;SDS011;5375;51.250;6.776;2023-05-10T13:34:55;3.05;;;2.50;;
10653;SDS011;5375;51.250;6.776;2023-05-10T13:37:21;2.92;;;2.10;;
10653;SDS011;5375;51.250;6.776;2023-05-10T13:39:47;2.70;;;2.22;;
10653;SDS011;5375;51.250;6.776;2023-05-10T13:42:13;2.45;;;2.22;;
10653;SDS011;5375;51.250;6.776;2023-05-10T13:44:39;2.90;;;2.30;;
10653;SDS011;5375;51.250;6.776;2023-05-10T13:47:05;2.50;;;2.30;;
10653;SDS011;5375;51.250;6.776;2023-05-10T13:49:31;3.28;;;2.22;;
10653;SDS011;5375;51.250;6.776;2023-05-10T13:51:56;3.00;;;2.40;;
10653;SDS011;5375;51.250;6.776;2023-05-10T13:54:23;3.15;;;2.47;;
10653;SDS011;5375;51.250;6.776;2023-05-10T13:56:48;3.20;;;2.55;;
10653;SDS011;5375;51.250;6.776;2023-05-10T13:59:14;6.13;;;4.55;;
10653;SDS011;5375;51.250;6.776;2023-05-10T14:01:40;6.25;;;4.70;;
10653;SDS011;5375;51.250;6.776;2023-05-10T14:04:07;5.97;;;4.43;;
10653;SDS011;5375;51.250;6.776;2023-05-10T14:06:35;7.03;;;4.65;;
10653;SDS011;5375;51.250;6.776;2023-05-10T14:09:01;6.65;;;4.85;;
10653;SDS011;5375;51.250;6.776;2023-05-10T14:11:27;5.72;;;4.72;;
10653;SDS011;5375;51.250;6.776;2023-05-10T14:13:53;6.60;;;5.15;;
10653;SDS011;5375;51.250;6.776;2023-05-10T14:16:19;6.63;;;4.65;;
10653;SDS011;5375;51.250;6.776;2023-05-10T14:18:45;8.98;;;5.40;;
10653;SDS011;5375;51.250;6.776;2023-05-10T14:21:11;6.45;;;4.65;;
10653;SDS011;5375;51.250;6.776;2023-05-10T14:23:37;4.95;;;4.40;;
10653;SDS011;5375;51.250;6.776;2023-05-10T14:26:05;5.32;;;4.60;;
10653;SDS011;5375;51.250;6.776;2023-05-10T14:28:31;4.82;;;3.95;;
10653;SDS011;5375;51.250;6.776;2023-05-10T14:30:57;6.47;;;4.70;;
10653;SDS011;5375;51.250;6.776;2023-05-10T14:33:23;8.00;;;4.00;;
10653;SDS011;5375;51.250;6.776;2023-05-10T14:35:50;4.50;;;3.70;;
10653;SDS011;5375;51.250;6.776;2023-05-10T14:38:16;3.95;;;3.45;;
10653;SDS011;5375;51.250;6.776;2023-05-10T14:40:41;4.95;;;3.35;;
10653;SDS011;5375;51.250;6.776;2023-05-10T14:43:08;3.70;;;2.88;;
10653;SDS011;5375;51.250;6.776;2023-05-10T14:45:33;3.40;;;3.10;;
10653;SDS011;5375;51.250;6.776;2023-05-10T14:47:59;4.78;;;3.03;;
10653;SDS011;5375;51.250;6.776;2023-05-10T14:50:25;4.85;;;3.00;;
10653;SDS011;5375;51.250;6.776;2023-05-10T14:52:51;6.68;;;3.03;;
10653;SDS011;5375;51.250;6.776;2023-05-10T14:55:16;4.43;;;3.17;;
10653;SDS011;5375;51.250;6.776;2023-05-10T14:57:42;3.58;;;2.83;;
10653;SDS011;5375;51.250;6.776;2023-05-10T15:00:09;3.65;;;2.78;;
10653;SDS011;5375;51.250;6.776;2023-05-10T15:02:35;4.95;;;3.38;;
10653;SDS011;5375;51.250;6.776;2023-05-10T15:05:01;4.35;;;2.97;;
10653;SDS011;5375;51.250;6.776;2023-05-10T15:07:27;3.58;;;3.17;;
10653;SDS011;5375;51.250;6.776;2023-05-10T15:09:52;3.85;;;2.70;;
10653;SDS011;5375;51.250;6.776;2023-05-10T15:12:19;3.80;;;2.70;;
10653;SDS011;5375;51.250;6.776;2023-05-10T15:14:45;4.15;;;2.97;;
10653;SDS011;5375;51.250;6.776;2023-05-10T15:17:11;3.88;;;2.97;;
10653;SDS011;5375;51.250;6.776;2023-05-10T15:19:36;4.50;;;2.70;;
10653;SDS011;5375;51.250;6.776;2023-05-10T15:22:03;5.25;;;2.85;;
10653;SDS011;5375;51.250;6.776;2023-05-10T15:24:29;3.80;;;3.10;;
10653;SDS011;5375;51.250;6.776;2023-05-10T15:26:55;3.78;;;2.60;;
10653;SDS011;5375;51.250;6.776;2023-05-10T15:29:21;3.65;;;2.60;;
10653;SDS011;5375;51.250;6.776;2023-05-10T15:31:47;4.05;;;2.70;;
10653;SDS011;5375;51.250;6.776;2023-05-10T15:34:13;6.55;;;3.03;;
10653;SDS011;5375;51.250;6.776;2023-05-10T15:36:39;2.92;;;2.40;;
10653;SDS011;5375;51.250;6.776;2023-05-10T15:39:05;3.83;;;2.60;;
10653;SDS011;5375;51.250;6.776;2023-05-10T15:41:31;4.32;;;2.92;;
10653;SDS011;5375;51.250;6.776;2023-05-10T15:43:57;3.40;;;2.75;;
10653;SDS011;5375;51.250;6.776;2023-05-10T15:46:26;3.08;;;2.40;;
10653;SDS011;5375;51.250;6.776;2023-05-10T15:48:52;3.50;;;3.13;;
10653;SDS011;5375;51.250;6.776;2023-05-10T15:51:18;4.22;;;2.75;;